Tafi del Valle, Argentina
Current Conditions -  °F | °C
As of 2:00 PM on Saturday 25 Oct 2014 (Local Time) from SANT Reporting Station
Clear Clear  
Wind Chill: 104°   Ceiling: Unl
Heat Index: 104°   Visibility: 4mi
Dew Point: 54°   Wind: 16mph
Humidity: 19%   Direction: 360°N
Pressure: 29.83"   Gusts: NA
Location:  26.87°S, 65.68°W
Report Text: SANT 251700Z 36014KT 7000 NSC 40/12 Q1010
Loading
Personal Weather Stations






























Interactive Weather Map
Tropical Storm Tracking
New forecast layout! Learn more

10-Day Weather Forecast

Advertisements
Track Severe Weather on mobile